createdAt,value
2023-01-29T00:03:23.978Z,4.90
2023-01-29T00:09:42.370Z,4.80
2023-01-29T00:15:36.772Z,4.80
2023-01-29T00:21:32.153Z,4.70
2023-01-29T00:28:03.413Z,4.70
2023-01-29T00:34:23.124Z,4.60
2023-01-29T00:40:17.878Z,4.70
2023-01-29T00:46:12.546Z,4.60
2023-01-29T00:52:31.098Z,4.50
2023-01-29T00:58:49.492Z,4.50
2023-01-29T01:04:43.896Z,4.50
2023-01-29T01:10:38.352Z,4.50
2023-01-29T01:16:56.945Z,4.60
2023-01-29T01:23:15.320Z,4.50
2023-01-29T01:29:09.654Z,4.60
2023-01-29T01:35:04.576Z,4.60
2023-01-29T01:41:24.119Z,4.60
2023-01-29T01:47:46.695Z,4.60
2023-01-29T01:53:41.973Z,4.70
2023-01-29T01:59:37.055Z,4.60
2023-01-29T02:06:14.247Z,4.70
2023-01-29T02:12:32.774Z,4.70
2023-01-29T02:18:27.255Z,4.70
2023-01-29T02:24:25.484Z,4.70
2023-01-29T02:31:08.652Z,4.80
2023-01-29T02:37:31.968Z,4.80
2023-01-29T02:43:31.097Z,4.80
2023-01-29T02:49:34.406Z,4.70
2023-01-29T02:56:17.743Z,4.70
2023-01-29T03:02:38.413Z,4.80
2023-01-29T03:08:43.361Z,4.80
2023-01-29T03:14:56.685Z,4.70
2023-01-29T03:21:40.055Z,4.80
2023-01-29T03:28:20.196Z,4.60
2023-01-29T03:34:19.329Z,4.60
2023-01-29T03:40:14.233Z,4.60
2023-01-29T03:46:43.678Z,4.70
2023-01-29T03:53:08.404Z,4.60
2023-01-29T03:59:04.983Z,4.60
2023-01-29T04:05:09.984Z,4.60
2023-01-29T04:11:28.484Z,4.60
2023-01-29T04:17:49.216Z,4.60
2023-01-29T04:23:43.615Z,4.70
2023-01-29T04:29:50.163Z,4.60
2023-01-29T04:36:46.617Z,4.60
2023-01-29T04:43:07.816Z,4.60
2023-01-29T04:49:20.983Z,4.60
2023-01-29T04:55:30.484Z,4.50
2023-01-29T05:01:49.024Z,4.50
2023-01-29T05:08:07.441Z,4.50
2023-01-29T05:14:02.594Z,4.50
2023-01-29T05:19:57.092Z,4.50
2023-01-29T05:26:33.932Z,4.60
2023-01-29T05:32:52.373Z,4.60
2023-01-29T05:38:46.713Z,4.70
2023-01-29T05:44:41.216Z,4.60
2023-01-29T05:51:03.372Z,4.70
2023-01-29T05:57:22.223Z,4.70
2023-01-29T06:03:16.804Z,4.70
2023-01-29T06:09:12.003Z,4.70
2023-01-29T06:15:30.585Z,4.80
2023-01-29T06:21:49.002Z,4.80
2023-01-29T06:27:43.368Z,4.80
2023-01-29T06:33:37.803Z,4.80
2023-01-29T06:40:10.362Z,5.00
2023-01-29T06:46:28.751Z,5.00
2023-01-29T06:52:23.089Z,5.00
2023-01-29T06:58:17.554Z,5.00
2023-01-29T07:04:36.804Z,5.00
2023-01-29T07:11:01.142Z,5.00
2023-01-29T07:16:55.511Z,5.00
2023-01-29T07:22:49.952Z,5.10
2023-01-29T07:29:08.500Z,5.10
2023-01-29T07:35:26.873Z,5.00
2023-01-29T07:41:21.251Z,5.00
2023-01-29T07:47:17.203Z,5.10
2023-01-29T07:53:37.130Z,5.10
2023-01-29T07:59:55.544Z,5.10
2023-01-29T08:05:50.095Z,5.10
2023-01-29T08:11:44.598Z,5.10
2023-01-29T08:18:03.299Z,5.10
2023-01-29T08:24:21.741Z,5.20
2023-01-29T08:30:16.974Z,5.20
2023-01-29T08:36:12.130Z,5.10
2023-01-29T08:42:43.609Z,5.20
2023-01-29T08:49:01.980Z,5.20
2023-01-29T08:54:56.333Z,5.20
2023-01-29T09:00:50.810Z,5.20
2023-01-29T09:07:09.275Z,5.20
2023-01-29T09:13:27.671Z,5.30
2023-01-29T09:19:22.025Z,5.40
2023-01-29T09:25:16.778Z,5.30
2023-01-29T09:31:35.461Z,5.50
2023-01-29T09:37:54.134Z,5.50
2023-01-29T09:43:59.720Z,5.60
2023-01-29T09:50:01.326Z,5.60
2023-01-29T09:56:23.764Z,5.70
2023-01-29T10:02:42.157Z,6.00
2023-01-29T10:08:41.194Z,5.80
2023-01-29T10:14:42.078Z,5.80
2023-01-29T10:21:34.292Z,5.80
2023-01-29T10:27:54.324Z,5.70
2023-01-29T10:34:02.543Z,5.80
2023-01-29T10:40:00.001Z,5.80
2023-01-29T10:47:03.261Z,5.90
2023-01-29T10:53:27.984Z,6.00
2023-01-29T10:59:37.338Z,6.10
2023-01-29T11:05:35.212Z,6.00
2023-01-29T11:12:03.196Z,6.10
2023-01-29T11:18:21.548Z,6.20
2023-01-29T11:24:17.503Z,6.10
2023-01-29T11:30:32.587Z,6.10
2023-01-29T11:36:59.121Z,6.20
2023-01-29T11:43:21.524Z,6.20
2023-01-29T11:49:30.119Z,6.10
2023-01-29T11:55:26.522Z,6.00
2023-01-29T12:01:47.346Z,6.20
2023-01-29T12:08:10.443Z,6.20
2023-01-29T12:14:05.513Z,6.20
2023-01-29T12:20:11.660Z,6.10
2023-01-29T12:26:35.902Z,6.20
2023-01-29T12:33:03.360Z,6.40
2023-01-29T12:38:59.121Z,6.50
2023-01-29T12:45:03.129Z,6.40
2023-01-29T12:51:39.504Z,6.50
2023-01-29T12:58:01.570Z,6.50
2023-01-29T13:04:16.157Z,6.50
2023-01-29T13:10:13.731Z,6.40
2023-01-29T13:16:36.364Z,6.40
2023-01-29T13:22:55.604Z,6.50
2023-01-29T13:28:50.090Z,6.50
2023-01-29T13:34:45.438Z,6.50
2023-01-29T13:41:05.384Z,6.60
2023-01-29T13:47:27.879Z,6.70
2023-01-29T13:53:24.775Z,6.60
2023-01-29T13:59:52.035Z,6.70
2023-01-29T14:06:10.515Z,6.60
2023-01-29T14:12:32.945Z,6.70
2023-01-29T14:18:27.666Z,6.70
2023-01-29T14:24:22.742Z,6.60
2023-01-29T14:30:41.406Z,6.60
2023-01-29T14:37:04.050Z,6.60
2023-01-29T14:43:08.318Z,6.70
2023-01-29T14:49:03.141Z,6.60
2023-01-29T14:55:53.170Z,6.70
2023-01-29T15:02:19.038Z,6.70
2023-01-29T15:08:13.408Z,6.60
2023-01-29T15:14:25.366Z,6.60
2023-01-29T15:20:44.060Z,6.60
2023-01-29T15:27:02.441Z,6.70
2023-01-29T15:32:56.875Z,6.60
2023-01-29T15:39:19.431Z,6.60
2023-01-29T15:45:40.546Z,6.60
2023-01-29T15:51:59.718Z,6.50
2023-01-29T15:57:54.132Z,6.50
2023-01-29T16:03:51.852Z,6.50
2023-01-29T16:10:22.106Z,6.50
2023-01-29T16:16:40.609Z,6.50
2023-01-29T16:22:40.039Z,6.40
2023-01-29T16:28:45.035Z,6.40
2023-01-29T16:35:03.680Z,6.40
2023-01-29T16:41:22.053Z,6.40
2023-01-29T16:47:23.666Z,6.40
2023-01-29T16:53:19.881Z,6.50
2023-01-29T16:59:54.329Z,6.50
2023-01-29T17:06:13.185Z,6.60
2023-01-29T17:12:07.911Z,6.60
2023-01-29T17:18:02.852Z,6.60
2023-01-29T17:24:21.319Z,6.60
2023-01-29T17:30:39.750Z,6.70
2023-01-29T17:36:34.123Z,6.70
2023-01-29T17:42:29.054Z,6.70
2023-01-29T17:48:52.450Z,6.90
2023-01-29T17:55:10.815Z,6.80
2023-01-29T18:01:05.266Z,6.90
2023-01-29T18:06:59.784Z,7.00
2023-01-29T18:13:18.272Z,7.00
2023-01-29T18:19:36.790Z,7.00
2023-01-29T18:25:31.374Z,7.00
2023-01-29T18:31:26.941Z,6.90
2023-01-29T18:37:45.474Z,7.10
2023-01-29T18:44:03.869Z,7.20
2023-01-29T18:49:58.463Z,7.10
2023-01-29T18:56:06.628Z,7.10
2023-01-29T19:02:37.111Z,7.10
2023-01-29T19:08:55.498Z,7.20
2023-01-29T19:14:49.923Z,7.20
2023-01-29T19:20:44.421Z,7.20
2023-01-29T19:27:02.913Z,7.20
2023-01-29T19:33:21.404Z,7.20
2023-01-29T19:39:16.113Z,7.20
2023-01-29T19:45:10.667Z,7.20
2023-01-29T19:51:29.364Z,7.30
2023-01-29T19:57:47.943Z,7.30
2023-01-29T20:03:48.448Z,7.30
2023-01-29T20:09:45.051Z,7.20
2023-01-29T20:16:05.426Z,7.30
2023-01-29T20:22:23.932Z,7.30
2023-01-29T20:28:19.336Z,7.30
2023-01-29T20:34:13.839Z,7.30
2023-01-29T20:40:32.387Z,7.30
2023-01-29T20:46:50.798Z,7.40
2023-01-29T20:52:45.206Z,7.40
2023-01-29T20:58:41.093Z,7.40
2023-01-29T21:05:13.503Z,7.50
2023-01-29T21:11:33.499Z,7.50
2023-01-29T21:17:28.204Z,7.60
2023-01-29T21:23:22.780Z,7.60
2023-01-29T21:29:41.295Z,7.70
2023-01-29T21:35:59.729Z,7.80
2023-01-29T21:42:12.792Z,7.90
2023-01-29T21:48:07.698Z,8.00
2023-01-29T21:54:31.011Z,8.20
2023-01-29T22:00:49.728Z,8.30
2023-01-29T22:06:44.227Z,8.20
2023-01-29T22:12:40.058Z,8.20
2023-01-29T22:18:58.879Z,8.30
2023-01-29T22:25:20.143Z,8.40
2023-01-29T22:31:14.870Z,8.40
2023-01-29T22:37:09.396Z,8.30
2023-01-29T22:43:29.257Z,8.40
2023-01-29T22:49:50.106Z,8.40
2023-01-29T22:55:44.499Z,8.30
2023-01-29T23:01:39.070Z,8.30
2023-01-29T23:08:09.566Z,8.40
2023-01-29T23:14:28.008Z,8.40
2023-01-29T23:20:23.354Z,8.40
2023-01-29T23:26:36.509Z,8.40
2023-01-29T23:32:55.002Z,8.40
2023-01-29T23:39:13.378Z,8.30
2023-01-29T23:45:08.023Z,8.30
2023-01-29T23:52:53.275Z,8.30
2023-01-29T23:59:11.824Z,8.20
